Impacts TAF Board
For situational awareness. Not to be used for flight planning purposes.
IDs:

KCVG - Cincinnati Intl, KY, US

Issued at 2333 UTC 25 Apr 2019
Updated at 0249 UTC 26 Apr 2019
Potential Impact None Slight Moderate High
Time<<27/03Z 27/04Z 27/05Z 27/06Z 27/07Z 27/08Z 27/09Z 27/10Z 27/11Z 27/12Z 27/13Z 27/14Z 27/15Z
Type PRVL PRVL PRVL
VIS >6 >6 >6
CIG -- -- --
Cover FEW FEW FEW
FltCat VFR VFR VFR
WX -- -- --
WDir 300 300 300
WSpd 11 11 11
WGst -- -- --
Raw TAF
KCVG 252333Z 2600/2706 13007KT P6SM VCTS FEW026 BKN045CB OVC250
  TEMPO 2600/2602 VRB20G35KT 2SM +TSRA OVC025CB
  FM260400 21012KT P6SM SHRA OVC025
  FM261300 30014G25KT P6SM -SHRA OVC015
  FM261600 31017G30KT P6SM VCSH BKN025
  FM261800 31016G29KT P6SM VCSH SCT050
  FM270000 30011KT P6SM FEW250


METAR Board
Radar Display
Forecast Discussion
For situational awareness. Not to be used for flight planning purposes.